Time;durP1;ratioP1;P1;durP2;ratioP2;P2;SDS_P1;SDS_P2;PMS_P1;PMS_P2;Temp;Humidity;BMP_temperature;BMP_pressure;BME280_temperature;BME280_humidity;BME280_pressure;Samples;Min_cycle;Max_cycle;Signal;HPM_P1;HPM_P2
2021/05/15 00:02:12;;;;;;;2.20;1.90;;;14.70;71.60;;;;;;5033001;28;20522;-85
2021/05/15 00:04:38;;;;;;;2.85;2.10;;;14.70;71.90;;;;;;5033288;28;20036;-85
2021/05/15 00:07:04;;;;;;;2.60;1.90;;;14.70;72.10;;;;;;5015686;28;20022;-85
2021/05/15 00:09:29;;;;;;;3.97;1.77;;;14.60;72.70;;;;;;5015617;28;20061;-84
2021/05/15 00:11:55;;;;;;;2.33;1.98;;;14.60;72.80;;;;;;5034242;28;20030;-84
2021/05/15 00:14:21;;;;;;;2.10;1.90;;;14.50;73.40;;;;;;5019255;28;20037;-84
2021/05/15 00:16:46;;;;;;;2.28;1.75;;;14.50;73.30;;;;;;5019361;28;20030;-84
2021/05/15 00:19:12;;;;;;;4.25;2.25;;;14.40;73.40;;;;;;5037164;28;20033;-84
2021/05/15 00:21:38;;;;;;;2.25;1.77;;;14.30;74.10;;;;;;5019544;28;20172;-84
2021/05/15 00:24:04;;;;;;;2.60;1.98;;;14.30;74.10;;;;;;5019504;28;20027;-84
2021/05/15 00:26:30;;;;;;;3.63;2.08;;;14.30;74.50;;;;;;5019331;28;20101;-84
2021/05/15 00:28:55;;;;;;;2.92;2.20;;;14.30;74.70;;;;;;5036705;28;20471;-84
2021/05/15 00:31:21;;;;;;;2.65;1.67;;;14.20;74.80;;;;;;5036615;28;20452;-84
2021/05/15 00:33:47;;;;;;;2.03;1.75;;;14.20;74.70;;;;;;5036999;28;20498;-84
2021/05/15 00:36:12;;;;;;;2.00;1.80;;;14.20;74.90;;;;;;5018866;28;20057;-85
2021/05/15 00:38:38;;;;;;;2.42;2.08;;;14.10;75.00;;;;;;5036598;28;20025;-85
2021/05/15 00:41:04;;;;;;;2.70;1.83;;;14.10;75.30;;;;;;5018854;28;20116;-85
2021/05/15 00:43:30;;;;;;;5.63;1.75;;;14.10;75.20;;;;;;5051683;28;20022;-84
2021/05/15 00:45:56;;;;;;;3.00;2.10;;;14.00;75.10;;;;;;5018696;28;20056;-85
2021/05/15 00:48:22;;;;;;;2.10;1.90;;;14.00;75.40;;;;;;5019050;28;20075;-85
2021/05/15 00:50:48;;;;;;;2.45;1.70;;;14.00;75.50;;;;;;5018821;28;20036;-84
2021/05/15 00:53:15;;;;;;;2.20;1.70;;;13.90;75.60;;;;;;5036352;28;20029;-84
2021/05/15 00:55:41;;;;;;;2.05;1.85;;;13.90;75.70;;;;;;5036259;28;20216;-83
2021/05/15 00:58:07;;;;;;;2.85;2.00;;;13.80;75.70;;;;;;5036221;28;20483;-84
2021/05/15 01:00:33;;;;;;;2.83;2.00;;;13.80;76.20;;;;;;5018780;28;20080;-85
2021/05/15 01:02:59;;;;;;;2.30;2.10;;;13.80;76.70;;;;;;5036176;28;20122;-85
2021/05/15 01:05:25;;;;;;;2.65;2.28;;;13.80;76.70;;;;;;5036240;28;20026;-85
2021/05/15 01:07:51;;;;;;;3.53;2.38;;;13.70;77.40;;;;;;5036317;28;20025;-85
2021/05/15 01:10:18;;;;;;;2.55;2.30;;;13.70;77.70;;;;;;5035765;28;20026;-85
2021/05/15 01:12:55;;;;;;;3.10;2.50;;;13.70;77.90;;;;;;5035784;28;20033;-85
2021/05/15 01:15:25;;;;;;;3.03;2.55;;;13.60;78.80;;;;;;5036120;28;20146;-85
2021/05/15 01:17:57;;;;;;;3.50;2.30;;;13.60;78.90;;;;;;5018421;28;20031;-84
2021/05/15 01:20:25;;;;;;;5.18;2.50;;;13.60;79.60;;;;;;5018278;28;20699;-85
2021/05/15 01:22:51;;;;;;;2.58;1.92;;;13.50;78.80;;;;;;5035169;28;20064;-85
2021/05/15 01:25:18;;;;;;;3.85;2.30;;;13.50;79.10;;;;;;5017637;28;20048;-84
2021/05/15 01:27:44;;;;;;;3.00;2.15;;;13.50;79.40;;;;;;5017939;28;20434;-83
2021/05/15 01:30:12;;;;;;;4.13;2.72;;;13.50;79.20;;;;;;5035855;28;20030;-83
2021/05/15 01:32:40;;;;;;;4.15;2.20;;;13.40;79.60;;;;;;5035780;28;20091;-83
2021/05/15 01:35:07;;;;;;;2.90;2.30;;;13.40;79.70;;;;;;5035624;28;20078;-83
2021/05/15 01:37:33;;;;;;;4.25;2.42;;;13.40;80.00;;;;;;5017520;28;20536;-84
2021/05/15 01:40:00;;;;;;;3.42;2.47;;;13.40;80.20;;;;;;5050638;28;20075;-84
2021/05/15 01:42:25;;;;;;;3.15;2.50;;;13.40;80.10;;;;;;5017722;28;20033;-84
2021/05/15 01:44:51;;;;;;;4.75;3.05;;;13.30;80.50;;;;;;5035624;28;20040;-84
2021/05/15 01:47:17;;;;;;;4.35;2.70;;;13.30;81.10;;;;;;5017736;28;20103;-84
2021/05/15 01:49:45;;;;;;;3.85;2.42;;;13.20;81.20;;;;;;5017527;28;20025;-84
2021/05/15 01:52:11;;;;;;;4.25;2.80;;;13.20;81.10;;;;;;5035288;28;20033;-84
2021/05/15 01:54:37;;;;;;;2.67;2.45;;;13.20;81.30;;;;;;5035121;28;20546;-84
2021/05/15 01:57:03;;;;;;;3.38;2.40;;;13.10;81.20;;;;;;5035168;28;20059;-84
2021/05/15 01:59:28;;;;;;;3.15;2.40;;;13.10;81.50;;;;;;5035118;28;20367;-84
2021/05/15 02:01:54;;;;;;;2.40;2.20;;;13.00;81.30;;;;;;5035002;28;20075;-84
2021/05/15 02:04:19;;;;;;;2.47;2.25;;;13.00;81.40;;;;;;5017416;28;20022;-84
2021/05/15 02:06:45;;;;;;;3.30;2.45;;;13.00;81.80;;;;;;5034678;28;20479;-84
2021/05/15 02:09:11;;;;;;;3.70;2.70;;;13.00;81.90;;;;;;5034677;28;20021;-84
2021/05/15 02:11:38;;;;;;;3.13;2.40;;;12.90;81.90;;;;;;5034941;28;20116;-84
2021/05/15 02:14:04;;;;;;;3.67;2.50;;;12.90;82.20;;;;;;5034717;28;20025;-84
2021/05/15 02:16:30;;;;;;;3.33;2.33;;;12.90;81.90;;;;;;5034889;28;20040;-83
2021/05/15 02:18:56;;;;;;;2.80;2.50;;;12.80;82.00;;;;;;5034765;28;20037;-83
2021/05/15 02:21:21;;;;;;;3.70;2.80;;;12.80;82.40;;;;;;5016952;28;20175;-83
2021/05/15 02:23:47;;;;;;;4.38;3.10;;;12.80;82.90;;;;;;5016822;28;20053;-83
2021/05/15 02:26:13;;;;;;;4.38;3.05;;;12.70;83.10;;;;;;5034519;28;20471;-85
2021/05/15 02:28:38;;;;;;;3.47;2.60;;;12.70;83.20;;;;;;5034689;28;20367;-83
2021/05/15 02:31:04;;;;;;;3.50;2.78;;;12.70;83.40;;;;;;5034272;28;20499;-83
2021/05/15 02:33:30;;;;;;;3.13;2.25;;;12.70;83.20;;;;;;5049796;28;20032;-84
2021/05/15 02:35:55;;;;;;;4.38;2.63;;;12.70;83.30;;;;;;5016308;28;20029;-83
2021/05/15 02:38:22;;;;;;;4.45;2.65;;;12.70;83.30;;;;;;5034649;28;20025;-82
2021/05/15 02:40:48;;;;;;;3.53;2.90;;;12.70;83.90;;;;;;5034243;28;20038;-82
2021/05/15 02:43:17;;;;;;;5.13;3.53;;;12.70;84.00;;;;;;5034709;28;20030;-83
2021/05/15 02:45:43;;;;;;;5.10;4.20;;;12.70;84.20;;;;;;5034486;28;20097;-83
2021/05/15 02:48:09;;;;;;;5.22;4.38;;;12.70;84.50;;;;;;5016553;28;20364;-83
2021/05/15 02:50:35;;;;;;;5.57;4.05;;;12.70;85.00;;;;;;5016098;28;20087;-84
2021/05/15 02:53:01;;;;;;;6.45;4.68;;;12.70;85.40;;;;;;5034159;28;20025;-84
2021/05/15 02:55:27;;;;;;;5.93;4.72;;;12.70;85.50;;;;;;5034087;28;20448;-83
2021/05/15 02:57:54;;;;;;;7.15;4.55;;;12.80;85.80;;;;;;5033974;28;20037;-84
2021/05/15 03:00:27;;;;;;;5.80;4.13;;;12.80;86.20;;;;;;5016189;28;20026;-83
2021/05/15 03:02:53;;;;;;;5.43;3.63;;;12.80;86.60;;;;;;5034225;28;20029;-84
2021/05/15 03:05:21;;;;;;;6.80;4.05;;;12.80;86.30;;;;;;5016373;28;20543;-84
2021/05/15 03:07:48;;;;;;;6.05;4.30;;;12.80;86.70;;;;;;5033863;28;20029;-84
2021/05/15 03:10:13;;;;;;;5.43;4.20;;;12.80;87.00;;;;;;5015971;28;20037;-84
2021/05/15 03:12:39;;;;;;;5.45;3.88;;;12.80;87.20;;;;;;5033820;28;20033;-84
2021/05/15 03:15:11;;;;;;;6.10;4.28;;;12.90;87.50;;;;;;5016014;28;20470;-84
2021/05/15 03:17:38;;;;;;;5.38;4.10;;;12.90;88.00;;;;;;5015995;28;20043;-85
2021/05/15 03:20:06;;;;;;;6.43;4.28;;;12.90;88.30;;;;;;5016358;28;20549;-84
2021/05/15 03:22:32;;;;;;;5.50;3.42;;;12.90;88.20;;;;;;5015734;28;20481;-84
2021/05/15 03:24:58;;;;;;;8.85;4.28;;;13.00;87.70;;;;;;5015955;28;20033;-83
2021/05/15 03:27:24;;;;;;;5.97;4.20;;;13.00;87.90;;;;;;5015680;28;20025;-84
2021/05/15 03:29:49;;;;;;;6.75;4.50;;;13.00;88.10;;;;;;5017247;28;20033;-83
2021/05/15 03:32:15;;;;;;;6.25;4.43;;;13.10;88.60;;;;;;5016608;28;20109;-84
2021/05/15 03:34:41;;;;;;;5.68;3.90;;;13.10;88.40;;;;;;5033748;28;20029;-84
2021/05/15 03:37:06;;;;;;;6.85;4.40;;;13.20;88.40;;;;;;5033490;28;20072;-83
2021/05/15 03:39:32;;;;;;;6.70;4.63;;;13.20;88.50;;;;;;5033521;28;20032;-83
2021/05/15 03:41:58;;;;;;;5.10;3.85;;;13.20;88.70;;;;;;5015624;28;20048;-83
2021/05/15 03:44:23;;;;;;;5.68;4.07;;;13.30;88.50;;;;;;5015947;28;20061;-83
2021/05/15 03:46:49;;;;;;;5.40;3.72;;;13.30;88.40;;;;;;5034482;28;20026;-85
2021/05/15 03:49:16;;;;;;;6.22;3.92;;;13.40;88.20;;;;;;5037294;28;20025;-84
2021/05/15 03:51:41;;;;;;;6.97;4.72;;;13.40;88.50;;;;;;5037473;28;20026;-83
2021/05/15 03:54:07;;;;;;;6.75;4.22;;;13.50;88.80;;;;;;5037146;28;20057;-83
2021/05/15 03:56:36;;;;;;;7.28;4.30;;;13.50;88.60;;;;;;5019580;28;20073;-83
2021/05/15 03:59:02;;;;;;;5.70;4.18;;;13.60;88.60;;;;;;5036984;28;20391;-83
2021/05/15 04:01:30;;;;;;;6.47;4.25;;;13.60;88.40;;;;;;5036911;28;20033;-82
2021/05/15 04:03:56;;;;;;;5.60;3.75;;;13.70;88.40;;;;;;5037147;28;20483;-83
2021/05/15 04:06:21;;;;;;;7.07;4.00;;;13.70;88.20;;;;;;5037080;28;20107;-83
2021/05/15 04:08:47;;;;;;;6.10;3.70;;;13.80;88.30;;;;;;5037051;28;20084;-83
2021/05/15 04:11:13;;;;;;;5.82;4.00;;;13.80;87.80;;;;;;5052206;28;20033;-84
2021/05/15 04:18:42;;;;;;;8.05;4.50;;;14.00;87.80;;;;;;5037080;28;20037;-84
2021/05/15 04:21:07;;;;;;;5.78;4.18;;;14.00;87.80;;;;;;5036742;28;20038;-84
2021/05/15 04:23:33;;;;;;;6.55;4.35;;;14.10;87.30;;;;;;5019363;28;20124;-84
2021/05/15 04:26:03;;;;;;;6.80;4.90;;;14.20;87.40;;;;;;5052289;28;20021;-84
2021/05/15 04:28:30;;;;;;;6.50;5.07;;;14.30;87.50;;;;;;5018807;28;20120;-84
2021/05/15 04:30:56;;;;;;;7.07;4.90;;;14.30;87.60;;;;;;5036649;28;20488;-84
2021/05/15 04:33:24;;;;;;;6.25;4.93;;;14.30;87.20;;;;;;5018920;28;20036;-84
2021/05/15 04:35:55;;;;;;;6.93;5.13;;;14.40;87.30;;;;;;5018668;28;20048;-84
2021/05/15 04:38:21;;;;;;;6.13;4.45;;;14.40;87.70;;;;;;5036636;28;20375;-84
2021/05/15 04:40:47;;;;;;;7.18;4.18;;;14.40;87.00;;;;;;5051996;28;20037;-84
2021/05/15 04:43:14;;;;;;;5.60;4.35;;;14.50;86.90;;;;;;5036758;28;20034;-85
2021/05/15 04:45:44;;;;;;;8.63;5.07;;;14.50;86.80;;;;;;5036488;28;20026;-85
2021/05/15 04:48:10;;;;;;;8.10;4.45;;;14.60;86.50;;;;;;5018717;28;20080;-85
2021/05/15 04:50:40;;;;;;;7.38;4.78;;;14.60;86.20;;;;;;5036217;28;20083;-85
2021/05/15 04:53:06;;;;;;;8.05;5.38;;;14.70;86.10;;;;;;5018534;28;20406;-85
2021/05/15 04:55:32;;;;;;;6.78;4.93;;;14.70;86.10;;;;;;5036408;28;20135;-85
2021/05/15 04:57:59;;;;;;;6.25;4.50;;;14.80;85.90;;;;;;5036238;28;20057;-85
2021/05/15 05:00:25;;;;;;;6.60;4.38;;;14.80;85.80;;;;;;5018277;28;20026;-85
2021/05/15 05:02:53;;;;;;;7.60;4.40;;;14.80;85.80;;;;;;5037501;28;20104;-85
2021/05/15 05:05:19;;;;;;;6.25;4.30;;;14.90;85.70;;;;;;5036892;28;20460;-84
2021/05/15 05:07:45;;;;;;;5.00;3.83;;;15.00;85.50;;;;;;5020549;28;20029;-85
2021/05/15 05:10:11;;;;;;;4.72;3.63;;;15.10;85.10;;;;;;5036246;28;20026;-84
2021/05/15 05:12:40;;;;;;;6.95;4.65;;;15.20;84.80;;;;;;5037105;28;20513;-85
2021/05/15 05:15:06;;;;;;;6.18;4.38;;;15.30;84.40;;;;;;5019703;28;20444;-84
2021/05/15 05:17:32;;;;;;;11.00;6.45;;;15.30;83.90;;;;;;5036073;28;20044;-84
2021/05/15 05:19:57;;;;;;;9.48;4.97;;;15.40;83.70;;;;;;5035863;28;20026;-84
2021/05/15 05:22:23;;;;;;;6.38;4.10;;;15.50;83.60;;;;;;5035658;28;20049;-83
2021/05/15 05:24:49;;;;;;;4.13;3.40;;;15.50;83.20;;;;;;5017640;28;20026;-83
2021/05/15 05:27:18;;;;;;;6.35;3.47;;;15.70;82.90;;;;;;5035830;28;20049;-85
2021/05/15 05:29:47;;;;;;;7.13;4.00;;;15.80;82.80;;;;;;5035514;28;20025;-85
2021/05/15 05:32:13;;;;;;;4.35;3.42;;;15.90;82.50;;;;;;5037441;28;20034;-85
2021/05/15 05:34:39;;;;;;;4.88;3.90;;;15.90;82.00;;;;;;5017617;28;20018;-84
2021/05/15 05:37:05;;;;;;;5.97;3.50;;;16.10;81.70;;;;;;5035360;28;20022;-85
2021/05/15 05:39:32;;;;;;;4.18;3.30;;;16.20;81.40;;;;;;5018920;28;20040;-85
2021/05/15 05:41:59;;;;;;;4.60;3.17;;;16.30;81.10;;;;;;5017574;28;20392;-84
2021/05/15 05:44:25;;;;;;;3.05;2.42;;;16.40;80.70;;;;;;5035342;28;20029;-85
2021/05/15 05:46:51;;;;;;;3.97;2.60;;;16.50;80.00;;;;;;5017762;28;20421;-84
2021/05/15 05:49:17;;;;;;;4.05;2.50;;;16.50;79.00;;;;;;5035490;28;20029;-84
2021/05/15 05:51:45;;;;;;;4.13;2.67;;;16.70;78.20;;;;;;5035214;28;20497;-84
2021/05/15 05:54:11;;;;;;;2.10;1.90;;;16.70;77.60;;;;;;5017406;28;20045;-84
2021/05/15 05:56:37;;;;;;;4.25;2.00;;;16.80;77.60;;;;;;5035576;28;20048;-84
2021/05/15 05:59:03;;;;;;;2.13;1.80;;;16.90;77.50;;;;;;5017512;28;20026;-84
2021/05/15 06:01:29;;;;;;;2.33;2.10;;;16.90;77.10;;;;;;5035241;28;20422;-85
2021/05/15 06:03:54;;;;;;;2.13;1.65;;;17.00;76.70;;;;;;5035258;28;20075;-85
2021/05/15 06:06:20;;;;;;;2.25;1.75;;;17.10;76.30;;;;;;5035110;28;20087;-85
2021/05/15 06:08:46;;;;;;;2.45;1.55;;;17.20;76.00;;;;;;5034847;28;20032;-85
2021/05/15 06:11:11;;;;;;;1.52;1.42;;;17.30;75.80;;;;;;5016536;28;20364;-85
2021/05/15 06:13:38;;;;;;;1.80;1.70;;;17.40;75.10;;;;;;5034917;28;20471;-85
2021/05/15 06:16:04;;;;;;;1.65;1.55;;;17.50;74.60;;;;;;5017175;28;20124;-87
2021/05/15 06:18:30;;;;;;;2.35;1.60;;;17.60;74.20;;;;;;5035204;28;20037;-87
2021/05/15 06:20:56;;;;;;;1.88;1.60;;;17.70;73.70;;;;;;5017075;28;20037;-87
2021/05/15 06:23:22;;;;;;;1.30;1.20;;;17.80;73.50;;;;;;5016928;28;20456;-86
2021/05/15 06:25:48;;;;;;;1.90;1.50;;;17.90;73.30;;;;;;5034437;28;20032;-87
2021/05/15 06:28:15;;;;;;;1.63;1.50;;;18.00;72.90;;;;;;5034657;28;20588;-86
2021/05/15 06:30:41;;;;;;;1.50;1.40;;;18.10;72.30;;;;;;5034614;28;20040;-87
2021/05/15 06:33:07;;;;;;;2.17;1.42;;;18.10;71.60;;;;;;5016548;28;20028;-86
2021/05/15 06:35:37;;;;;;;2.55;1.52;;;18.30;71.80;;;;;;5016545;28;20022;-86
2021/05/15 06:38:03;;;;;;;2.97;1.40;;;18.30;71.10;;;;;;5034376;28;20392;-87
2021/05/15 06:40:29;;;;;;;1.52;1.42;;;18.50;70.40;;;;;;5016252;28;20026;-86
2021/05/15 06:42:54;;;;;;;1.83;1.30;;;18.50;69.90;;;;;;5016095;28;20029;-85
2021/05/15 06:45:20;;;;;;;1.70;1.60;;;18.60;69.50;;;;;;5034032;28;20087;-86
2021/05/15 06:47:46;;;;;;;4.35;1.30;;;18.70;69.00;;;;;;5033948;28;20029;-86
2021/05/15 06:50:12;;;;;;;1.58;1.48;;;18.80;68.60;;;;;;5034003;28;20415;-86
2021/05/15 06:52:38;;;;;;;2.10;1.45;;;18.80;67.40;;;;;;5034651;28;20025;-86
2021/05/15 06:55:07;;;;;;;1.60;1.20;;;18.90;67.50;;;;;;5033826;28;20440;-86
2021/05/15 06:57:32;;;;;;;1.45;1.33;;;18.90;67.10;;;;;;5016209;28;20328;-86
2021/05/15 06:59:58;;;;;;;1.77;1.50;;;19.00;66.40;;;;;;5016205;28;20116;-86
2021/05/15 07:02:24;;;;;;;1.55;1.40;;;19.10;66.50;;;;;;5033959;28;20041;-86
2021/05/15 07:04:50;;;;;;;2.55;1.48;;;19.20;66.00;;;;;;5033919;28;20021;-86
2021/05/15 07:07:21;;;;;;;1.92;1.50;;;19.30;65.30;;;;;;5033941;28;20505;-86
2021/05/15 07:09:48;;;;;;;2.10;1.60;;;19.40;64.60;;;;;;5016297;28;20025;-86
2021/05/15 07:12:14;;;;;;;2.20;1.50;;;19.40;64.40;;;;;;5016118;28;20430;-84
2021/05/15 07:14:40;;;;;;;1.17;1.08;;;19.50;64.90;;;;;;5033721;28;20078;-85
2021/05/15 07:17:05;;;;;;;2.17;1.20;;;19.60;64.00;;;;;;5033561;28;20380;-84
2021/05/15 07:19:31;;;;;;;1.90;1.27;;;19.60;63.50;;;;;;5033521;28;20052;-86
2021/05/15 07:21:57;;;;;;;2.45;1.48;;;19.60;63.60;;;;;;5014730;28;20120;-86
2021/05/15 07:24:22;;;;;;;1.20;1.10;;;19.70;63.80;;;;;;5049000;28;20452;-86
2021/05/15 07:26:48;;;;;;;1.52;1.30;;;19.80;63.80;;;;;;5033427;28;20101;-85
2021/05/15 07:29:14;;;;;;;1.40;1.30;;;19.90;63.20;;;;;;5033429;28;20064;-86
2021/05/15 07:31:39;;;;;;;1.42;1.23;;;19.90;63.10;;;;;;5048511;28;20033;-85
2021/05/15 07:34:05;;;;;;;2.03;1.38;;;20.00;62.90;;;;;;5015575;28;20085;-85
2021/05/15 07:36:31;;;;;;;2.55;1.20;;;20.00;62.50;;;;;;5033509;28;20033;-86
2021/05/15 07:38:57;;;;;;;1.55;1.17;;;20.10;62.50;;;;;;5015581;28;20033;-86
2021/05/15 07:41:24;;;;;;;1.30;1.02;;;20.10;62.20;;;;;;5033756;28;20359;-85
2021/05/15 07:43:50;;;;;;;3.22;1.42;;;20.20;61.70;;;;;;5033357;28;20026;-85
2021/05/15 07:46:16;;;;;;;1.35;1.25;;;20.30;61.70;;;;;;5033810;28;20022;-85
2021/05/15 07:48:43;;;;;;;1.60;1.20;;;20.30;61.30;;;;;;5021453;28;20025;-86
2021/05/15 07:51:15;;;;;;;1.35;1.25;;;20.40;61.10;;;;;;5040559;28;20029;-84
2021/05/15 07:53:41;;;;;;;1.88;1.00;;;20.50;60.70;;;;;;5033975;28;20030;-86
2021/05/15 07:56:07;;;;;;;2.38;1.20;;;20.50;60.10;;;;;;5015867;28;20036;-85
2021/05/15 07:58:33;;;;;;;1.48;1.20;;;20.60;60.00;;;;;;5033718;28;20030;-87
2021/05/15 08:01:00;;;;;;;1.77;1.23;;;20.60;60.20;;;;;;5033338;28;20038;-85
2021/05/15 08:03:26;;;;;;;1.42;0.95;;;20.70;59.90;;;;;;5032983;28;20033;-86
2021/05/15 08:05:53;;;;;;;1.33;1.23;;;20.90;60.40;;;;;;5033220;28;20514;-86
2021/05/15 08:08:19;;;;;;;1.40;1.00;;;21.20;60.30;;;;;;5033636;28;20034;-87
2021/05/15 08:10:47;;;;;;;2.28;0.85;;;21.50;60.90;;;;;;5033286;28;20065;-86
2021/05/15 08:13:13;;;;;;;1.90;0.80;;;21.90;60.60;;;;;;5015393;28;20519;-87
2021/05/15 08:15:40;;;;;;;1.20;1.00;;;22.30;60.30;;;;;;5032940;28;20037;-86
2021/05/15 08:18:06;;;;;;;1.00;0.75;;;22.70;57.50;;;;;;5034089;28;20036;-90
2021/05/15 08:20:32;;;;;;;1.17;1.05;;;23.00;57.90;;;;;;5015549;28;20036;-83
2021/05/15 08:22:58;;;;;;;1.30;1.00;;;23.30;57.10;;;;;;5016952;28;20033;-84
2021/05/15 08:25:25;;;;;;;1.25;0.80;;;23.50;55.80;;;;;;5033535;28;20029;-86
2021/05/15 08:27:53;;;;;;;1.73;0.80;;;23.60;55.80;;;;;;5034087;28;20026;-83
2021/05/15 08:30:24;;;;;;;1.60;0.88;;;23.80;54.70;;;;;;5016103;28;20026;-84
2021/05/15 08:32:51;;;;;;;1.08;0.70;;;23.90;53.10;;;;;;5016606;28;20068;-87
2021/05/15 08:35:17;;;;;;;0.73;0.73;;;24.00;52.90;;;;;;5037026;28;20041;-84
2021/05/15 08:37:45;;;;;;;0.93;0.88;;;24.20;52.80;;;;;;5019448;28;20041;-85
2021/05/15 08:40:12;;;;;;;0.88;0.82;;;24.40;52.70;;;;;;5036681;28;20025;-85
2021/05/15 08:42:40;;;;;;;1.10;0.77;;;24.70;52.60;;;;;;5018658;28;20045;-85
2021/05/15 08:45:07;;;;;;;1.25;0.90;;;25.00;51.00;;;;;;5036784;28;20026;-85
2021/05/15 08:47:36;;;;;;;1.10;0.80;;;25.20;50.60;;;;;;5036646;28;20104;-84
2021/05/15 08:50:07;;;;;;;0.65;0.65;;;25.40;49.60;;;;;;5036477;28;20029;-84
2021/05/15 08:52:36;;;;;;;1.05;0.80;;;25.50;47.90;;;;;;5018478;28;20029;-84
2021/05/15 08:55:02;;;;;;;1.52;0.77;;;25.50;48.70;;;;;;5036307;28;20513;-85
2021/05/15 08:57:28;;;;;;;1.00;0.90;;;25.70;48.30;;;;;;5036929;28;20072;-86
2021/05/15 08:59:53;;;;;;;1.65;1.30;;;25.90;47.80;;;;;;5037726;28;20033;-86
2021/05/15 09:02:19;;;;;;;1.50;1.00;;;26.10;46.90;;;;;;5038485;28;20037;-85
2021/05/15 09:04:45;;;;;;;0.70;0.70;;;26.20;46.30;;;;;;5019433;28;20063;-85
2021/05/15 09:07:10;;;;;;;0.80;0.80;;;26.40;46.60;;;;;;5019509;28;20029;-85
2021/05/15 09:09:37;;;;;;;0.60;0.60;;;26.60;46.50;;;;;;5036281;28;20119;-86
2021/05/15 09:12:04;;;;;;;0.68;0.63;;;26.80;46.40;;;;;;5018126;28;20492;-86
2021/05/15 09:14:29;;;;;;;1.13;0.60;;;27.00;44.80;;;;;;5018131;28;20464;-85
2021/05/15 09:16:57;;;;;;;2.00;1.80;;;27.00;44.70;;;;;;5018468;28;20111;-86
2021/05/15 09:19:27;;;;;;;2.22;1.10;;;27.20;44.50;;;;;;5035931;28;20179;-84
2021/05/15 09:22:05;;;;;;;1.33;1.23;;;27.20;44.70;;;;;;5035719;28;20071;-86
2021/05/15 09:24:45;;;;;;;1.83;0.73;;;27.10;44.10;;;;;;5036408;28;20036;-86
2021/05/15 09:27:14;;;;;;;0.80;0.60;;;27.10;44.00;;;;;;5035685;28;20030;-86
2021/05/15 09:29:45;;;;;;;1.13;0.65;;;27.10;44.00;;;;;;5017893;28;20116;-86
2021/05/15 09:32:16;;;;;;;8.77;1.20;;;27.30;43.90;;;;;;5035738;28;20029;-85
2021/05/15 09:34:46;;;;;;;1.00;0.80;;;27.40;43.50;;;;;;5035502;28;20131;-85
2021/05/15 09:37:11;;;;;;;0.52;0.52;;;27.20;42.30;;;;;;5035474;28;20482;-85
2021/05/15 09:39:37;;;;;;;0.82;0.50;;;26.70;42.40;;;;;;5050462;28;20029;-86
2021/05/15 09:42:04;;;;;;;1.45;0.57;;;26.40;43.80;;;;;;5035045;28;20485;-85
2021/05/15 09:44:33;;;;;;;0.65;0.60;;;26.60;43.60;;;;;;5016627;28;20021;-86
2021/05/15 09:46:58;;;;;;;2.33;0.60;;;26.70;42.90;;;;;;5017637;28;20030;-86
2021/05/15 09:49:26;;;;;;;1.65;0.50;;;26.90;42.50;;;;;;5017267;28;20423;-85
2021/05/15 09:52:02;;;;;;;1.15;0.52;;;27.00;41.40;;;;;;5017332;28;20471;-85
2021/05/15 09:54:31;;;;;;;0.57;0.52;;;27.20;42.00;;;;;;5035071;28;20452;-85
2021/05/15 09:57:03;;;;;;;1.55;0.85;;;27.50;42.60;;;;;;5017417;28;20026;-85
2021/05/15 09:59:31;;;;;;;0.47;0.47;;;27.90;41.00;;;;;;5035014;28;20025;-86
2021/05/15 10:02:00;;;;;;;0.80;0.60;;;28.00;40.70;;;;;;5016704;28;20447;-87
2021/05/15 10:04:26;;;;;;;0.82;0.63;;;28.20;41.10;;;;;;5034797;28;20025;-86
2021/05/15 10:06:53;;;;;;;0.50;0.50;;;28.40;40.50;;;;;;5035042;28;20029;-86
2021/05/15 10:09:31;;;;;;;1.77;0.57;;;28.50;40.30;;;;;;5016626;28;20098;-85
2021/05/15 10:11:58;;;;;;;0.47;0.47;;;28.80;39.20;;;;;;5034853;28;20037;-86
2021/05/15 10:14:24;;;;;;;0.93;0.60;;;29.00;40.60;;;;;;5016546;28;20033;-86
2021/05/15 10:16:50;;;;;;;0.65;0.55;;;29.20;40.50;;;;;;5034748;28;20034;-86
2021/05/15 10:19:16;;;;;;;0.80;0.50;;;29.50;40.80;;;;;;5034625;28;20030;-86
2021/05/15 10:21:43;;;;;;;0.47;0.47;;;29.50;39.00;;;;;;5034391;28;20030;-86
2021/05/15 10:24:20;;;;;;;0.40;0.40;;;29.20;38.80;;;;;;5016628;28;20021;-86
2021/05/15 10:27:11;;;;;;;0.65;0.50;;;29.00;39.10;;;;;;5049688;28;20048;-86
2021/05/15 10:29:51;;;;;;;0.73;0.38;;;29.00;39.10;;;;;;5034383;28;20056;-86
2021/05/15 10:32:31;;;;;;;0.40;0.40;;;28.90;39.20;;;;;;5049628;28;20025;-86
2021/05/15 10:35:07;;;;;;;0.60;0.60;;;28.90;38.50;;;;;;5034061;28;20025;-87
2021/05/15 10:37:38;;;;;;;0.68;0.55;;;28.90;38.00;;;;;;5016562;28;20032;-86
2021/05/15 10:40:14;;;;;;;1.58;0.70;;;28.90;37.70;;;;;;5034387;28;20060;-86
2021/05/15 10:42:40;;;;;;;1.58;0.60;;;29.00;38.00;;;;;;5034204;28;20060;-86
2021/05/15 10:45:07;;;;;;;0.57;0.57;;;29.20;37.90;;;;;;5034394;28;20072;-87
2021/05/15 10:47:43;;;;;;;0.52;0.52;;;29.30;37.80;;;;;;5034027;28;20083;-86
2021/05/15 10:50:22;;;;;;;0.60;0.50;;;29.60;38.00;;;;;;5016383;28;20032;-85
2021/05/15 10:52:50;;;;;;;0.32;0.32;;;29.70;36.60;;;;;;5034181;28;20034;-86
2021/05/15 10:55:33;;;;;;;0.43;0.40;;;29.40;37.40;;;;;;5015802;28;20060;-86
2021/05/15 10:58:14;;;;;;;0.55;0.50;;;29.20;37.30;;;;;;5015923;28;20038;-86
2021/05/15 11:00:40;;;;;;;1.08;0.50;;;29.30;37.40;;;;;;5033882;28;20429;-86
2021/05/15 11:03:07;;;;;;;0.50;0.50;;;29.20;36.50;;;;;;5034187;28;20032;-87
2021/05/15 11:05:44;;;;;;;0.22;0.22;;;29.10;36.90;;;;;;5034036;28;20460;-86
2021/05/15 11:08:23;;;;;;;1.48;0.50;;;29.30;37.20;;;;;;5033871;28;20068;-86
2021/05/15 11:10:49;;;;;;;0.37;0.37;;;29.90;37.20;;;;;;5033873;28;20032;-86
2021/05/15 11:13:15;;;;;;;0.30;0.30;;;30.20;37.30;;;;;;5033955;28;20290;-87
2021/05/15 11:15:40;;;;;;;0.70;0.50;;;30.70;36.90;;;;;;5033448;28;20064;-86
2021/05/15 11:18:09;;;;;;;0.30;0.30;;;31.10;36.20;;;;;;5015786;28;20083;-86
2021/05/15 11:20:46;;;;;;;1.20;0.53;;;31.50;35.70;;;;;;5033557;28;20041;-86
2021/05/15 11:23:20;;;;;;;0.40;0.40;;;31.80;34.60;;;;;;5034210;28;20029;-86
2021/05/15 11:25:55;;;;;;;0.52;0.52;;;31.90;34.10;;;;;;5034183;28;20030;-87
2021/05/15 11:28:26;;;;;;;0.88;0.88;;;31.90;33.70;;;;;;5033605;28;20021;-85
2021/05/15 11:30:53;;;;;;;0.80;0.60;;;31.60;33.60;;;;;;5033476;28;20043;-86
2021/05/15 11:33:20;;;;;;;1.25;0.40;;;31.40;33.90;;;;;;5015483;28;20036;-87
2021/05/15 11:35:54;;;;;;;0.50;0.50;;;31.50;34.60;;;;;;5033393;28;20036;-86
2021/05/15 11:38:27;;;;;;;0.73;0.60;;;31.80;33.80;;;;;;5033598;28;20022;-87
2021/05/15 11:40:58;;;;;;;0.77;0.68;;;31.90;32.30;;;;;;5015431;28;20037;-86
2021/05/15 11:43:29;;;;;;;1.55;0.52;;;31.90;32.60;;;;;;5015718;28;20487;-86
2021/05/15 11:45:55;;;;;;;0.88;0.35;;;31.50;32.90;;;;;;5015211;28;20065;-87
2021/05/15 11:48:26;;;;;;;0.80;0.80;;;31.50;34.20;;;;;;5015445;28;20068;-87
2021/05/15 11:51:04;;;;;;;0.60;0.50;;;31.90;33.60;;;;;;5015732;28;20463;-86
2021/05/15 11:53:32;;;;;;;0.50;0.50;;;31.90;32.60;;;;;;5033209;28;20084;-87
2021/05/15 11:55:58;;;;;;;1.83;0.50;;;31.70;32.70;;;;;;5015178;28;20071;-87
2021/05/15 11:58:24;;;;;;;1.48;0.40;;;31.60;32.60;;;;;;5033258;28;20053;-87
2021/05/15 12:00:50;;;;;;;0.63;0.55;;;31.70;33.00;;;;;;4998881;28;20029;-85
2021/05/15 12:03:23;;;;;;;0.25;0.25;;;31.90;32.70;;;;;;5015425;28;20487;-86
2021/05/15 12:05:51;;;;;;;0.65;0.50;;;31.90;32.10;;;;;;5033325;28;20435;-86
2021/05/15 12:08:18;;;;;;;1.95;0.40;;;31.60;32.40;;;;;;5017063;28;20444;-86
2021/05/15 12:10:45;;;;;;;1.15;0.47;;;31.10;33.00;;;;;;5019329;28;20029;-86
2021/05/15 12:13:17;;;;;;;0.50;0.40;;;31.10;33.70;;;;;;5036938;28;20694;-86
2021/05/15 12:15:52;;;;;;;0.60;0.50;;;31.70;33.30;;;;;;5036791;28;20057;-86
2021/05/15 12:18:17;;;;;;;0.40;0.38;;;32.40;33.20;;;;;;5019530;28;20095;-86
2021/05/15 12:20:50;;;;;;;0.32;0.32;;;32.80;32.20;;;;;;5036865;28;20186;-86
2021/05/15 12:23:20;;;;;;;0.30;0.30;;;32.50;31.30;;;;;;5036867;28;20033;-86
2021/05/15 12:25:59;;;;;;;1.95;0.65;;;31.90;31.70;;;;;;5036410;28;20029;-87
2021/05/15 12:28:32;;;;;;;0.40;0.40;;;31.70;32.00;;;;;;5052528;28;20032;-86
2021/05/15 12:31:00;;;;;;;0.60;0.38;;;31.90;32.40;;;;;;5036550;28;20468;-86
2021/05/15 12:33:27;;;;;;;0.38;0.38;;;32.10;31.70;;;;;;5018772;28;20109;-86
2021/05/15 12:36:11;;;;;;;0.30;0.30;;;32.10;31.70;;;;;;5018689;28;20031;-86
2021/05/15 12:38:51;;;;;;;0.70;0.55;;;32.30;31.80;;;;;;5036497;28;20025;-86
2021/05/15 12:41:32;;;;;;;0.50;0.50;;;32.70;32.00;;;;;;5015937;28;20183;-87
2021/05/15 12:44:04;;;;;;;0.60;0.60;;;32.80;31.00;;;;;;5036444;28;20104;-87
2021/05/15 12:46:57;;;;;;;1.15;0.82;;;32.70;30.90;;;;;;5036311;28;20018;-86
2021/05/15 12:49:26;;;;;;;0.82;0.60;;;32.70;31.40;;;;;;5015595;28;20040;-86
2021/05/15 12:51:52;;;;;;;0.47;0.47;;;33.00;31.30;;;;;;5036387;28;20040;-87
2021/05/15 12:54:28;;;;;;;0.93;0.40;;;33.30;31.30;;;;;;5036191;28;20050;-86
2021/05/15 12:56:59;;;;;;;0.30;0.30;;;33.40;30.60;;;;;;5051956;28;20044;-87